createdAt,value
2022-11-21T00:00:44.329Z,17.50
2022-11-21T00:03:12.324Z,17.60
2022-11-21T00:05:41.121Z,17.80
2022-11-21T00:08:09.202Z,17.90
2022-11-21T00:10:37.200Z,18.00
2022-11-21T00:13:06.560Z,18.00
2022-11-21T00:15:35.620Z,17.90
2022-11-21T00:18:03.903Z,17.80
2022-11-21T00:20:31.975Z,17.70
2022-11-21T00:22:59.875Z,17.60
2022-11-21T00:25:28.103Z,17.60
2022-11-21T00:27:55.987Z,17.60
2022-11-21T00:30:25.372Z,17.60
2022-11-21T00:32:53.299Z,17.50
2022-11-21T00:35:21.215Z,17.50
2022-11-21T00:37:50.716Z,17.50
2022-11-21T00:40:18.695Z,17.50
2022-11-21T00:42:46.599Z,17.50
2022-11-21T00:45:18.338Z,17.50
2022-11-21T00:47:50.536Z,17.50
2022-11-21T00:50:18.584Z,17.50
2022-11-21T00:52:46.459Z,17.40
2022-11-21T00:55:14.374Z,17.40
2022-11-21T00:57:42.284Z,17.50
2022-11-21T01:00:11.695Z,17.60
2022-11-21T01:02:39.757Z,17.80
2022-11-21T01:05:10.017Z,17.90
2022-11-21T01:07:37.962Z,17.90
2022-11-21T01:10:07.364Z,17.80
2022-11-21T01:12:35.516Z,17.80
2022-11-21T01:15:03.458Z,17.70
2022-11-21T01:17:33.423Z,17.60
2022-11-21T01:20:01.352Z,17.60
2022-11-21T01:22:30.561Z,17.50
2022-11-21T01:24:58.477Z,17.50
2022-11-21T01:27:26.597Z,17.50
2022-11-21T01:29:54.465Z,17.50
2022-11-21T01:32:22.380Z,17.50
2022-11-21T01:34:50.302Z,17.40
2022-11-21T01:37:18.208Z,17.40
2022-11-21T01:39:47.439Z,17.50
2022-11-21T01:42:15.364Z,17.40
2022-11-21T01:44:48.952Z,17.40
2022-11-21T01:47:17.141Z,17.40
2022-11-21T01:49:45.073Z,17.40
2022-11-21T01:52:14.155Z,17.40
2022-11-21T01:54:42.815Z,17.50
2022-11-21T01:57:13.725Z,17.60
2022-11-21T01:59:43.819Z,17.80
2022-11-21T02:02:12.486Z,17.90
2022-11-21T02:04:40.486Z,17.90
2022-11-21T02:07:08.417Z,17.80
2022-11-21T02:09:37.464Z,17.80
2022-11-21T02:12:07.833Z,17.70
2022-11-21T02:14:37.107Z,17.60
2022-11-21T02:17:06.406Z,17.60
2022-11-21T02:19:36.260Z,17.50
2022-11-21T02:22:06.969Z,17.50
2022-11-21T02:24:36.800Z,17.50
2022-11-21T02:27:06.078Z,17.50
2022-11-21T02:29:34.221Z,17.50
2022-11-21T02:32:05.298Z,17.40
2022-11-21T02:34:33.459Z,17.40
2022-11-21T02:37:01.355Z,17.40
2022-11-21T02:39:31.237Z,17.40
2022-11-21T02:42:02.674Z,17.40
2022-11-21T02:44:33.986Z,17.40
2022-11-21T02:47:01.840Z,17.40
2022-11-21T02:49:36.088Z,17.40
2022-11-21T02:52:03.981Z,17.50
2022-11-21T02:54:31.901Z,17.60
2022-11-21T02:56:59.866Z,17.70
2022-11-21T02:59:27.781Z,17.70
2022-11-21T03:01:59.643Z,17.70
2022-11-21T03:04:27.785Z,17.60
2022-11-21T03:06:55.847Z,17.60
2022-11-21T03:09:23.981Z,17.60
2022-11-21T03:11:51.858Z,17.60
2022-11-21T03:14:19.725Z,17.50
2022-11-21T03:16:47.648Z,17.50
2022-11-21T03:19:16.891Z,17.50
2022-11-21T03:21:44.808Z,17.50
2022-11-21T03:24:12.833Z,17.50
2022-11-21T03:26:40.814Z,17.50
2022-11-21T03:29:09.032Z,17.40
2022-11-21T03:31:36.893Z,17.40
2022-11-21T03:34:04.816Z,17.40
2022-11-21T03:36:34.081Z,17.40
2022-11-21T03:39:02.200Z,17.50
2022-11-21T03:41:32.819Z,17.60
2022-11-21T03:44:01.292Z,17.70
2022-11-21T03:46:29.332Z,17.70
2022-11-21T03:48:57.376Z,17.70
2022-11-21T03:51:25.377Z,17.60
2022-11-21T03:53:54.645Z,17.60
2022-11-21T03:56:22.626Z,17.60
2022-11-21T03:58:50.583Z,17.60
2022-11-21T04:01:18.614Z,17.50
2022-11-21T04:03:46.615Z,17.50
2022-11-21T04:06:15.309Z,17.50
2022-11-21T04:08:43.367Z,17.50
2022-11-21T04:11:15.693Z,17.50
2022-11-21T04:13:43.605Z,17.50
2022-11-21T04:16:11.512Z,17.40
2022-11-21T04:18:39.415Z,17.40
2022-11-21T04:21:08.119Z,17.40
2022-11-21T04:23:36.052Z,17.40
2022-11-21T04:26:04.684Z,17.50
2022-11-21T04:28:33.929Z,17.60
2022-11-21T04:31:09.793Z,17.70
2022-11-21T04:33:39.057Z,17.60
2022-11-21T04:36:07.812Z,17.60
2022-11-21T04:38:35.688Z,17.60
2022-11-21T04:41:03.564Z,17.60
2022-11-21T04:43:32.999Z,17.50
2022-11-21T04:46:01.061Z,17.50
2022-11-21T04:48:28.936Z,17.50
2022-11-21T04:50:56.837Z,17.40
2022-11-21T04:53:24.751Z,17.40
2022-11-21T04:55:52.663Z,17.40
2022-11-21T04:58:20.599Z,17.40
2022-11-21T05:00:50.022Z,17.40
2022-11-21T05:03:17.968Z,17.40
2022-11-21T05:05:45.891Z,17.40
2022-11-21T05:08:13.834Z,17.40
2022-11-21T05:10:55.638Z,17.40
2022-11-21T05:13:23.823Z,17.60
2022-11-21T05:15:57.400Z,17.80
2022-11-21T05:18:25.663Z,17.80
2022-11-21T05:20:53.550Z,17.80
2022-11-21T05:23:21.446Z,17.70
2022-11-21T05:25:49.342Z,17.70
2022-11-21T05:28:17.429Z,17.60
2022-11-21T05:30:45.341Z,17.50
2022-11-21T05:33:14.733Z,17.50
2022-11-21T05:35:43.666Z,17.50
2022-11-21T05:38:11.763Z,17.50
2022-11-21T05:40:39.767Z,17.40
2022-11-21T05:43:25.418Z,17.40
2022-11-21T05:45:53.351Z,17.40
2022-11-21T05:48:22.597Z,17.30
2022-11-21T05:50:50.635Z,17.30
2022-11-21T05:53:18.543Z,17.30
2022-11-21T05:55:46.445Z,17.30
2022-11-21T05:58:14.386Z,17.30
2022-11-21T06:00:42.714Z,17.30
2022-11-21T06:03:28.365Z,17.30
2022-11-21T06:06:02.071Z,17.40
2022-11-21T06:08:30.436Z,17.50
2022-11-21T06:10:58.485Z,17.60
2022-11-21T06:13:26.571Z,17.80
2022-11-21T06:15:56.920Z,17.80
2022-11-21T06:18:24.920Z,17.80
2022-11-21T06:20:53.046Z,17.80
2022-11-21T06:23:22.303Z,17.70
2022-11-21T06:25:53.367Z,17.60
2022-11-21T06:28:21.299Z,17.60
2022-11-21T06:30:51.774Z,17.50
2022-11-21T06:33:19.884Z,17.50
2022-11-21T06:35:47.769Z,17.50
2022-11-21T06:38:18.636Z,17.50
2022-11-21T06:40:47.897Z,17.50
2022-11-21T06:43:15.806Z,17.40
2022-11-21T06:45:43.809Z,17.40
2022-11-21T06:48:11.712Z,17.40
2022-11-21T06:50:39.624Z,17.40
2022-11-21T06:53:07.495Z,17.40
2022-11-21T06:55:35.388Z,17.40
2022-11-21T06:58:04.640Z,17.40
2022-11-21T07:00:32.543Z,17.30
2022-11-21T07:03:03.412Z,17.40
2022-11-21T07:05:31.603Z,17.50
2022-11-21T07:08:00.317Z,17.60
2022-11-21T07:10:28.225Z,17.70
2022-11-21T07:13:15.870Z,17.70
2022-11-21T07:15:45.419Z,17.60
2022-11-21T07:18:13.391Z,17.60
2022-11-21T07:20:41.333Z,17.60
2022-11-21T07:23:09.502Z,17.60
2022-11-21T07:25:37.702Z,17.50
2022-11-21T07:28:05.733Z,17.50
2022-11-21T07:30:33.655Z,17.50
2022-11-21T07:33:04.359Z,17.50
2022-11-21T07:35:32.404Z,17.50
2022-11-21T07:38:00.338Z,17.50
2022-11-21T07:40:28.417Z,17.40
2022-11-21T07:43:01.264Z,17.40
2022-11-21T07:45:29.180Z,17.40
2022-11-21T07:48:00.091Z,17.40
2022-11-21T07:50:29.689Z,17.50
2022-11-21T07:53:00.771Z,17.60
2022-11-21T07:55:29.716Z,17.70
2022-11-21T07:58:00.881Z,17.70
2022-11-21T08:00:29.088Z,17.60
2022-11-21T08:02:56.997Z,17.60
2022-11-21T08:05:24.961Z,17.60
2022-11-21T08:07:54.249Z,17.60
2022-11-21T08:10:22.162Z,17.60
2022-11-21T08:12:50.164Z,17.50
2022-11-21T08:15:18.242Z,17.50
2022-11-21T08:17:46.133Z,17.50
2022-11-21T08:20:14.271Z,17.50
2022-11-21T08:22:42.673Z,17.50
2022-11-21T08:25:12.678Z,17.50
2022-11-21T08:27:40.674Z,17.40
2022-11-21T08:30:10.155Z,17.40
2022-11-21T08:32:38.021Z,17.40
2022-11-21T08:35:06.599Z,17.50
2022-11-21T08:37:34.643Z,17.50
2022-11-21T08:40:02.561Z,17.60
2022-11-21T08:42:31.825Z,17.70
2022-11-21T08:44:59.702Z,17.70
2022-11-21T08:47:27.592Z,17.70
2022-11-21T08:49:55.526Z,17.70
2022-11-21T08:52:23.412Z,17.60
2022-11-21T08:54:51.320Z,17.60
2022-11-21T08:57:19.222Z,17.60
2022-11-21T08:59:48.502Z,17.50
2022-11-21T09:02:16.408Z,17.50
2022-11-21T09:04:44.328Z,17.50
2022-11-21T09:07:12.288Z,17.50
2022-11-21T09:09:40.255Z,17.50
2022-11-21T09:12:08.429Z,17.50
2022-11-21T09:14:54.194Z,17.40
2022-11-21T09:17:40.821Z,17.40
2022-11-21T09:20:09.861Z,17.40
2022-11-21T09:22:37.903Z,17.40
2022-11-21T09:25:06.770Z,17.50
2022-11-21T09:27:34.674Z,17.60
2022-11-21T09:30:02.582Z,17.70
2022-11-21T09:32:31.844Z,17.70
2022-11-21T09:34:59.811Z,17.60
2022-11-21T09:37:27.738Z,17.60
2022-11-21T09:39:55.675Z,17.60
2022-11-21T09:42:47.460Z,17.60
2022-11-21T09:45:16.773Z,17.50
2022-11-21T09:47:47.039Z,17.50
2022-11-21T09:50:25.252Z,17.50
2022-11-21T09:52:55.393Z,17.50
2022-11-21T09:55:27.668Z,17.50
2022-11-21T09:57:55.546Z,17.50
2022-11-21T10:00:24.784Z,17.40
2022-11-21T10:02:54.189Z,17.40
2022-11-21T10:05:27.159Z,17.40
2022-11-21T10:07:55.064Z,17.40
2022-11-21T10:10:30.082Z,17.50
2022-11-21T10:13:11.533Z,17.60
2022-11-21T10:15:47.789Z,17.60
2022-11-21T10:18:32.853Z,17.60
2022-11-21T10:21:03.814Z,17.50
2022-11-21T10:24:07.656Z,17.50
2022-11-21T10:26:40.405Z,17.50
2022-11-21T10:29:12.023Z,17.50
2022-11-21T10:31:40.971Z,17.50
2022-11-21T10:34:12.377Z,17.50
2022-11-21T10:36:41.069Z,17.40
2022-11-21T10:39:14.726Z,17.40
2022-11-21T10:41:45.973Z,17.50
2022-11-21T10:44:35.618Z,17.60
2022-11-21T10:47:03.704Z,17.60
2022-11-21T10:49:34.543Z,17.50
2022-11-21T10:52:05.518Z,17.50
2022-11-21T10:54:33.427Z,17.50
2022-11-21T10:57:03.158Z,17.50
2022-11-21T10:59:31.545Z,17.50
2022-11-21T11:02:00.516Z,17.50
2022-11-21T11:04:33.207Z,17.40
2022-11-21T11:07:20.976Z,17.40
2022-11-21T11:09:48.971Z,17.40
2022-11-21T11:12:45.188Z,17.50
2022-11-21T11:15:18.234Z,17.50
2022-11-21T11:17:46.112Z,17.50
2022-11-21T11:20:32.335Z,17.50
2022-11-21T11:23:01.587Z,17.50
2022-11-21T11:25:29.873Z,17.50
2022-11-21T11:28:00.350Z,17.50
2022-11-21T11:30:28.221Z,17.40
2022-11-21T11:32:56.153Z,17.40
2022-11-21T11:35:33.446Z,17.40
2022-11-21T11:38:04.000Z,17.40
2022-11-21T11:40:33.684Z,17.40
2022-11-21T11:43:58.322Z,17.40
2022-11-21T11:46:50.078Z,17.40
2022-11-21T11:49:21.500Z,17.40
2022-11-21T11:51:51.475Z,17.30
2022-11-21T11:54:22.399Z,17.30
2022-11-21T11:56:50.439Z,17.40
2022-11-21T11:59:21.731Z,17.50
2022-11-21T12:01:51.734Z,17.70
2022-11-21T12:04:20.938Z,17.70
2022-11-21T12:07:52.792Z,17.80
2022-11-21T12:09:43.151Z,17.80
2022-11-21T12:12:12.917Z,17.70
2022-11-21T12:15:05.890Z,17.60
2022-11-21T12:17:36.776Z,17.50
2022-11-21T12:20:06.714Z,17.50
2022-11-21T12:22:34.676Z,17.40
2022-11-21T12:25:03.990Z,17.40
2022-11-21T12:27:32.731Z,17.40
2022-11-21T12:30:21.483Z,17.40
2022-11-21T12:32:58.788Z,17.40
2022-11-21T12:36:04.822Z,17.30
2022-11-21T12:39:24.363Z,17.30
2022-11-21T12:42:13.285Z,17.30
2022-11-21T12:44:52.572Z,17.30
2022-11-21T12:47:29.967Z,17.30
2022-11-21T12:50:19.216Z,17.30
2022-11-21T12:53:06.822Z,17.30
2022-11-21T12:55:37.322Z,17.40
2022-11-21T12:58:18.668Z,17.50
2022-11-21T13:00:59.710Z,17.70
2022-11-21T13:03:40.940Z,17.80
2022-11-21T13:06:14.601Z,17.80
2022-11-21T13:08:42.859Z,17.70
2022-11-21T13:11:31.741Z,17.60
2022-11-21T13:14:04.330Z,17.50
2022-11-21T13:16:44.957Z,17.40
2022-11-21T13:19:18.420Z,17.40
2022-11-21T13:21:48.542Z,17.40
2022-11-21T13:24:49.994Z,17.40
2022-11-21T13:27:28.611Z,17.40
2022-11-21T13:30:22.865Z,17.40
2022-11-21T13:32:51.454Z,17.30
2022-11-21T13:36:05.495Z,17.30
2022-11-21T13:38:34.259Z,17.40
2022-11-21T13:41:19.439Z,17.50
2022-11-21T13:43:48.167Z,17.50
2022-11-21T13:46:39.551Z,17.50
2022-11-21T13:49:09.474Z,17.50
2022-11-21T13:51:53.538Z,17.40
2022-11-21T13:54:42.943Z,17.50
2022-11-21T13:57:19.427Z,17.40
2022-11-21T13:59:55.572Z,17.40
2022-11-21T14:02:43.378Z,17.40
2022-11-21T14:05:33.064Z,17.30
2022-11-21T14:08:18.386Z,17.30
2022-11-21T14:10:46.992Z,17.30
2022-11-21T14:13:22.552Z,17.30
2022-11-21T14:15:53.915Z,17.30
2022-11-21T14:18:23.899Z,17.30
2022-11-21T14:20:53.787Z,17.30
2022-11-21T14:23:22.604Z,17.30
2022-11-21T14:25:51.664Z,17.40
2022-11-21T14:28:23.618Z,17.60
2022-11-21T14:30:58.670Z,17.70
2022-11-21T14:33:29.479Z,17.80
2022-11-21T14:35:59.925Z,17.70
2022-11-21T14:38:28.134Z,17.70
2022-11-21T14:41:28.763Z,17.60
2022-11-21T14:44:19.743Z,17.50
2022-11-21T14:46:47.914Z,17.50
2022-11-21T14:49:29.135Z,17.40
2022-11-21T14:52:07.525Z,17.40
2022-11-21T14:54:50.285Z,17.40
2022-11-21T14:57:29.077Z,17.40
2022-11-21T14:59:57.889Z,17.30
2022-11-21T15:02:26.627Z,17.30
2022-11-21T15:04:56.761Z,17.30
2022-11-21T15:07:31.316Z,17.30
2022-11-21T15:12:51.118Z,17.30
2022-11-21T15:15:25.403Z,17.30
2022-11-21T15:18:24.374Z,17.30
2022-11-21T15:20:46.645Z,17.30
2022-11-21T15:23:29.307Z,17.40
2022-11-21T15:26:00.885Z,17.60
2022-11-21T15:28:29.660Z,17.70
2022-11-21T15:31:17.565Z,17.70
2022-11-21T15:36:47.067Z,17.60
2022-11-21T15:39:18.350Z,17.50
2022-11-21T15:41:46.266Z,17.50
2022-11-21T15:44:23.671Z,17.40
2022-11-21T15:46:54.391Z,17.40
2022-11-21T15:49:32.910Z,17.40
2022-11-21T15:52:07.421Z,17.40
2022-11-21T15:54:37.134Z,17.40
2022-11-21T15:57:05.179Z,17.30
2022-11-21T15:57:13.410Z,17.70
2022-11-21T15:59:33.105Z,17.30
2022-11-21T16:02:01.045Z,17.30
2022-11-21T16:04:28.971Z,17.40
2022-11-21T16:06:56.864Z,17.50
2022-11-21T16:09:26.346Z,17.50
2022-11-21T16:11:54.501Z,17.60
2022-11-21T16:14:22.626Z,17.50
2022-11-21T16:16:50.529Z,17.50
2022-11-21T16:19:18.441Z,17.50
2022-11-21T16:21:46.337Z,17.50
2022-11-21T16:24:14.192Z,17.50
2022-11-21T16:26:43.419Z,17.40
2022-11-21T16:29:11.590Z,17.40
2022-11-21T16:31:39.726Z,17.40
2022-11-21T16:34:08.315Z,17.40
2022-11-21T16:36:36.266Z,17.40
2022-11-21T16:39:10.052Z,17.40
2022-11-21T16:41:40.930Z,17.40
2022-11-21T16:44:13.855Z,17.40
2022-11-21T16:46:42.907Z,17.30
2022-11-21T16:49:11.031Z,17.30
2022-11-21T16:51:38.934Z,17.40
2022-11-21T16:54:09.208Z,17.50
2022-11-21T16:56:37.525Z,17.60
2022-11-21T16:59:05.435Z,17.60
2022-11-21T17:01:35.046Z,17.60
2022-11-21T17:04:03.009Z,17.50
2022-11-21T17:06:31.343Z,17.50
2022-11-21T17:09:00.857Z,17.60
2022-11-21T17:11:30.520Z,17.50
2022-11-21T17:14:00.120Z,17.50
2022-11-21T17:16:28.206Z,17.50
2022-11-21T17:18:58.399Z,17.40
2022-11-21T17:21:26.409Z,17.40
2022-11-21T17:23:54.328Z,17.50
2022-11-21T17:26:23.176Z,17.60
2022-11-21T17:28:54.509Z,17.60
2022-11-21T17:31:22.727Z,17.50
2022-11-21T17:33:51.694Z,17.50
2022-11-21T17:36:21.733Z,17.40
2022-11-21T17:38:49.667Z,17.50
2022-11-21T17:41:18.697Z,17.50
2022-11-21T17:43:47.221Z,17.50
2022-11-21T17:46:16.780Z,17.40
2022-11-21T17:48:48.465Z,17.40
2022-11-21T17:51:21.946Z,17.40
2022-11-21T17:53:50.567Z,17.40
2022-11-21T17:56:19.414Z,17.50
2022-11-21T17:58:47.620Z,17.50
2022-11-21T18:01:19.194Z,17.60
2022-11-21T18:03:47.631Z,17.50
2022-11-21T18:06:16.956Z,17.50
2022-11-21T18:08:46.677Z,17.50
2022-11-21T18:11:15.198Z,17.50
2022-11-21T18:13:43.099Z,17.50
2022-11-21T18:16:11.679Z,17.50
2022-11-21T18:18:39.682Z,17.50
2022-11-21T18:21:08.517Z,17.40
2022-11-21T18:23:36.441Z,17.40
2022-11-21T18:26:06.357Z,17.40
2022-11-21T18:28:34.361Z,17.50
2022-11-21T18:31:06.606Z,17.40
2022-11-21T18:33:34.557Z,17.40
2022-11-21T18:36:02.472Z,17.40
2022-11-21T18:38:48.150Z,17.40
2022-11-21T18:41:20.616Z,17.50
2022-11-21T18:43:51.002Z,17.60
2022-11-21T18:46:18.980Z,17.70
2022-11-21T18:49:02.371Z,17.70
2022-11-21T18:51:33.081Z,17.60
2022-11-21T18:54:03.282Z,17.60
2022-11-21T18:56:32.772Z,17.60
2022-11-21T18:59:00.749Z,17.60
2022-11-21T19:01:29.560Z,17.50
2022-11-21T19:03:57.942Z,17.50
2022-11-21T19:06:26.867Z,17.50
2022-11-21T19:08:55.558Z,17.40
2022-11-21T19:11:24.373Z,17.40
2022-11-21T19:13:54.039Z,17.40
2022-11-21T19:16:24.271Z,17.40
2022-11-21T19:19:18.650Z,17.40
2022-11-21T19:21:41.925Z,17.40
2022-11-21T19:24:13.035Z,17.30
2022-11-21T19:26:41.005Z,17.40
2022-11-21T19:29:10.647Z,17.50
2022-11-21T19:31:44.641Z,17.60
2022-11-21T19:34:13.706Z,17.80
2022-11-21T19:36:41.608Z,17.90
2022-11-21T19:39:09.894Z,17.80
2022-11-21T19:41:37.840Z,17.80
2022-11-21T19:44:05.863Z,17.70
2022-11-21T19:46:37.521Z,17.60
2022-11-21T19:49:05.668Z,17.60
2022-11-21T19:51:34.355Z,17.50
2022-11-21T19:54:02.847Z,17.50
2022-11-21T19:56:30.935Z,17.50
2022-11-21T19:58:59.222Z,17.50
2022-11-21T20:01:28.320Z,17.50
2022-11-21T20:03:58.401Z,17.40
2022-11-21T20:06:26.955Z,17.40
2022-11-21T20:08:57.026Z,17.40
2022-11-21T20:11:25.211Z,17.40
2022-11-21T20:13:53.185Z,17.40
2022-11-21T20:16:22.068Z,17.40
2022-11-21T20:18:50.284Z,17.40
2022-11-21T20:21:19.920Z,17.40
2022-11-21T20:23:47.992Z,17.40
2022-11-21T20:26:16.252Z,17.50
2022-11-21T20:28:44.227Z,17.60
2022-11-21T20:31:13.575Z,17.70
2022-11-21T20:33:42.512Z,17.60
2022-11-21T20:36:11.252Z,17.60
2022-11-21T20:38:41.389Z,17.60
2022-11-21T20:41:09.328Z,17.60
2022-11-21T20:44:14.264Z,17.50
2022-11-21T20:46:25.269Z,17.50
2022-11-21T20:48:53.161Z,17.50
2022-11-21T20:52:55.661Z,17.40
2022-11-21T20:54:10.447Z,17.40
2022-11-21T20:56:42.588Z,17.50
2022-11-21T20:59:12.836Z,17.60
2022-11-21T21:01:40.826Z,17.60
2022-11-21T21:04:10.002Z,17.60
2022-11-21T21:06:39.413Z,17.60
2022-11-21T21:09:07.388Z,17.60
2022-11-21T21:11:51.476Z,17.60
2022-11-21T21:14:21.049Z,17.50
2022-11-21T21:16:49.111Z,17.50
2022-11-21T21:19:17.404Z,17.50
2022-11-21T21:21:45.496Z,17.40
2022-11-21T21:24:13.545Z,17.40
2022-11-21T21:26:44.346Z,17.40
2022-11-21T21:29:12.597Z,17.40
2022-11-21T21:31:44.065Z,17.40
2022-11-21T21:34:14.910Z,17.40
2022-11-21T21:36:42.794Z,17.30
2022-11-21T21:39:10.699Z,17.30
2022-11-21T21:41:39.902Z,17.40
2022-11-21T21:44:09.414Z,17.50
2022-11-21T21:46:37.420Z,17.60
2022-11-21T21:49:05.328Z,17.60
2022-11-21T21:51:33.521Z,17.60
2022-11-21T21:54:01.410Z,17.50
2022-11-21T21:56:29.697Z,17.60
2022-11-21T21:58:57.928Z,17.50
2022-11-21T22:01:27.836Z,17.50
2022-11-21T22:03:56.238Z,17.50
2022-11-21T22:06:24.361Z,17.50
2022-11-21T22:08:52.336Z,17.40
2022-11-21T22:11:21.186Z,17.40
2022-11-21T22:13:49.609Z,17.40
2022-11-21T22:16:17.794Z,17.40
2022-11-21T22:18:47.052Z,17.40
2022-11-21T22:21:15.356Z,17.40
2022-11-21T22:24:09.319Z,17.40
2022-11-21T22:26:31.346Z,17.30
2022-11-21T22:28:59.253Z,17.40
2022-11-21T22:31:27.148Z,17.40
2022-11-21T22:33:56.362Z,17.40
2022-11-21T22:36:24.274Z,17.30
2022-11-21T22:38:53.791Z,17.30
2022-11-21T22:41:22.480Z,17.30
2022-11-21T22:43:50.877Z,17.50
2022-11-21T22:46:19.087Z,17.60
2022-11-21T22:48:47.283Z,17.70
2022-11-21T22:51:16.919Z,17.70
2022-11-21T22:53:46.496Z,17.60
2022-11-21T22:56:14.424Z,17.60
2022-11-21T22:58:42.523Z,17.60
2022-11-21T23:01:12.076Z,17.50
2022-11-21T23:03:40.130Z,17.50
2022-11-21T23:06:08.819Z,17.50
2022-11-21T23:08:38.458Z,17.40
2022-11-21T23:11:06.947Z,17.40
2022-11-21T23:13:35.088Z,17.40
2022-11-21T23:16:03.120Z,17.40
2022-11-21T23:18:31.028Z,17.40
2022-11-21T23:20:58.980Z,17.30
2022-11-21T23:23:26.864Z,17.30
2022-11-21T23:25:56.260Z,17.30
2022-11-21T23:28:24.228Z,17.40
2022-11-21T23:30:52.117Z,17.50
2022-11-21T23:33:20.025Z,17.60
2022-11-21T23:35:47.957Z,17.70
2022-11-21T23:38:16.522Z,17.80
2022-11-21T23:40:45.631Z,17.80
2022-11-21T23:43:14.891Z,17.70
2022-11-21T23:45:42.892Z,17.60
2022-11-21T23:48:11.192Z,17.60
2022-11-21T23:50:39.078Z,17.50
2022-11-21T23:53:07.004Z,17.50
2022-11-21T23:55:34.895Z,17.50
2022-11-21T23:58:02.800Z,17.50
